Time;durP1;ratioP1;P1;durP2;ratioP2;P2;SDS_P1;SDS_P2;PMS_P1;PMS_P2;Temp;Humidity;BMP_temperature;BMP_pressure;BME280_temperature;BME280_humidity;BME280_pressure;Samples;Min_cycle;Max_cycle;Signal;HPM_P1;HPM_P2
2023/08/10 00:01:34;;;;;;;73.43;11.75;;;;;;;;;;6249857;28;20881;-76
2023/08/10 00:04:34;;;;;;;75.93;13.50;;;;;;;;;;6246447;28;20022;-76
2023/08/10 00:07:34;;;;;;;58.72;11.65;;;;;;;;;;6239695;28;20073;-77
2023/08/10 00:10:35;;;;;;;49.90;11.53;;;;;;;;;;6245135;28;20029;-77
2023/08/10 00:13:36;;;;;;;49.73;11.63;;;;;;;;;;6227295;28;20057;-77
2023/08/10 00:16:36;;;;;;;47.08;12.35;;;;;;;;;;6247157;28;20028;-80
2023/08/10 00:19:37;;;;;;;60.58;13.23;;;;;;;;;;6249297;28;20017;-79
2023/08/10 00:22:37;;;;;;;67.50;11.90;;;;;;;;;;6245481;28;20024;-79
2023/08/10 00:25:38;;;;;;;32.50;11.53;;;;;;;;;;6243870;28;20087;-79
2023/08/10 00:28:38;;;;;;;52.07;12.57;;;;;;;;;;6246555;28;20080;-80
2023/08/10 00:31:38;;;;;;;38.13;12.37;;;;;;;;;;6244944;28;20025;-79
2023/08/10 00:34:38;;;;;;;31.65;11.57;;;;;;;;;;6227896;28;20176;-79
2023/08/10 00:37:38;;;;;;;36.60;13.93;;;;;;;;;;6244807;28;20036;-79
2023/08/10 00:40:39;;;;;;;29.37;13.00;;;;;;;;;;6244989;28;20152;-79
2023/08/10 00:43:42;;;;;;;37.67;13.20;;;;;;;;;;6244606;28;20063;-78
2023/08/10 00:46:43;;;;;;;46.20;11.82;;;;;;;;;;6226522;28;20491;-78
2023/08/10 00:49:44;;;;;;;40.77;15.07;;;;;;;;;;6244583;28;20112;-78
2023/08/10 00:52:44;;;;;;;35.35;13.15;;;;;;;;;;6244545;28;20057;-78
2023/08/10 00:55:46;;;;;;;24.93;13.27;;;;;;;;;;6243599;28;20117;-78
2023/08/10 00:58:47;;;;;;;26.63;14.45;;;;;;;;;;6244470;28;20021;-78
2023/08/10 01:01:49;;;;;;;22.97;12.63;;;;;;;;;;6246743;28;20479;-79
2023/08/10 01:04:49;;;;;;;24.13;13.20;;;;;;;;;;6244897;28;20666;-78
2023/08/10 01:07:58;;;;;;;25.33;14.20;;;;;;;;;;6244173;28;20037;-78
2023/08/10 01:11:28;;;;;;;26.77;12.90;;;;;;;;;;6244004;28;20033;-78
2023/08/10 01:14:40;;;;;;;24.20;12.40;;;;;;;;;;6224989;28;20491;-78
2023/08/10 01:17:43;;;;;;;27.13;13.35;;;;;;;;;;6239862;28;20025;-79
2023/08/10 01:20:44;;;;;;;19.23;11.18;;;;;;;;;;6224838;28;20072;-78
2023/08/10 01:23:46;;;;;;;21.60;10.90;;;;;;;;;;6245946;28;20148;-78
2023/08/10 01:26:47;;;;;;;29.73;13.60;;;;;;;;;;6247276;28;20486;-77
2023/08/10 01:29:47;;;;;;;23.17;13.30;;;;;;;;;;6245386;28;20080;-77
2023/08/10 01:32:52;;;;;;;23.67;13.57;;;;;;;;;;6243218;28;20263;-77
2023/08/10 01:35:53;;;;;;;24.48;12.88;;;;;;;;;;6243719;28;20021;-76
2023/08/10 01:38:53;;;;;;;30.75;17.25;;;;;;;;;;6243898;28;20009;-79
2023/08/10 01:41:54;;;;;;;24.27;14.67;;;;;;;;;;6230072;28;20021;-79
2023/08/10 01:44:54;;;;;;;24.57;13.77;;;;;;;;;;6246157;28;20025;-78
2023/08/10 01:48:00;;;;;;;26.90;14.27;;;;;;;;;;6244648;28;20037;-79
2023/08/10 01:51:02;;;;;;;24.67;12.90;;;;;;;;;;6243285;28;20013;-80
2023/08/10 01:54:03;;;;;;;;;;;;;;;;;;6243796;28;20024;-79
2023/08/10 01:57:03;;;;;;;27.87;14.53;;;;;;;;;;6242902;28;19917;-79
2023/08/10 02:00:06;;;;;;;73.67;15.13;;;;;;;;;;6243305;28;20024;-79
2023/08/10 02:03:07;;;;;;;37.58;14.35;;;;;;;;;;6244074;28;20013;-79
2023/08/10 02:06:07;;;;;;;47.03;16.03;;;;;;;;;;6248878;28;20017;-79
2023/08/10 02:09:07;;;;;;;24.87;13.47;;;;;;;;;;6236298;28;20025;-79
2023/08/10 02:12:08;;;;;;;38.20;12.77;;;;;;;;;;6243247;28;20033;-78
2023/08/10 02:15:08;;;;;;;45.00;14.47;;;;;;;;;;6249078;28;20029;-78
2023/08/10 02:18:12;;;;;;;68.77;13.73;;;;;;;;;;6243912;28;20024;-78
2023/08/10 02:21:12;;;;;;;92.10;15.13;;;;;;;;;;6244887;28;20048;-79
2023/08/10 02:24:12;;;;;;;80.23;14.57;;;;;;;;;;6242039;28;20033;-79
2023/08/10 02:27:13;;;;;;;35.30;13.43;;;;;;;;;;6243066;28;20025;-78
2023/08/10 02:30:14;;;;;;;65.17;12.40;;;;;;;;;;6244771;28;20025;-79
2023/08/10 02:33:14;;;;;;;56.33;12.93;;;;;;;;;;6224575;28;20021;-78
2023/08/10 02:36:14;;;;;;;50.13;11.98;;;;;;;;;;6242170;28;20013;-78
2023/08/10 02:39:14;;;;;;;50.50;13.60;;;;;;;;;;6224646;28;20353;-79
2023/08/10 02:42:15;;;;;;;42.57;10.50;;;;;;;;;;6242827;28;20080;-79
2023/08/10 02:45:16;;;;;;;49.33;12.20;;;;;;;;;;6224227;28;20029;-79
2023/08/10 02:48:16;;;;;;;46.63;12.53;;;;;;;;;;6241886;28;20048;-79
2023/08/10 02:51:16;;;;;;;40.73;10.57;;;;;;;;;;6241885;28;20022;-78
2023/08/10 02:54:16;;;;;;;63.92;12.70;;;;;;;;;;6242019;28;20108;-79
2023/08/10 02:57:16;;;;;;;53.15;12.98;;;;;;;;;;6223398;28;20037;-77
2023/08/10 03:00:17;;;;;;;66.47;12.50;;;;;;;;;;6241621;28;20104;-76
2023/08/10 03:03:18;;;;;;;66.00;12.73;;;;;;;;;;6238714;28;20076;-77
2023/08/10 03:06:18;;;;;;;55.17;13.23;;;;;;;;;;6247212;28;20022;-76
2023/08/10 03:09:18;;;;;;;48.63;14.73;;;;;;;;;;6249448;28;20101;-76
2023/08/10 03:12:18;;;;;;;69.13;13.93;;;;;;;;;;6250346;28;20029;-76
2023/08/10 03:15:19;;;;;;;70.50;16.17;;;;;;;;;;6228768;28;20032;-76
2023/08/10 03:18:19;;;;;;;91.07;15.07;;;;;;;;;;6232361;28;20087;-76
2023/08/10 03:21:19;;;;;;;63.58;15.77;;;;;;;;;;6246163;28;20018;-76
2023/08/10 03:24:20;;;;;;;80.25;16.73;;;;;;;;;;6251775;28;20092;-76
2023/08/10 03:27:20;;;;;;;37.08;13.82;;;;;;;;;;6246579;28;20022;-76
2023/08/10 03:30:21;;;;;;;57.22;16.52;;;;;;;;;;6250178;28;20518;-76
2023/08/10 03:33:21;;;;;;;59.43;17.07;;;;;;;;;;6245730;28;20097;-76
2023/08/10 03:36:21;;;;;;;40.63;15.83;;;;;;;;;;6228115;28;20017;-76
2023/08/10 03:39:21;;;;;;;59.43;16.57;;;;;;;;;;6228835;28;20072;-76
2023/08/10 03:42:22;;;;;;;41.90;17.17;;;;;;;;;;6229157;28;20140;-76
2023/08/10 03:45:22;;;;;;;59.23;17.97;;;;;;;;;;6245658;28;20033;-76
2023/08/10 03:48:22;;;;;;;53.30;17.77;;;;;;;;;;6246122;28;20098;-77
2023/08/10 03:51:22;;;;;;;55.33;18.47;;;;;;;;;;6246024;28;20049;-77
2023/08/10 03:54:22;;;;;;;56.70;16.85;;;;;;;;;;6245179;28;20805;-77
2023/08/10 03:57:23;;;;;;;53.93;20.50;;;;;;;;;;6250912;28;20053;-78
2023/08/10 04:00:23;;;;;;;75.80;21.57;;;;;;;;;;6246455;28;20032;-76
2023/08/10 04:03:24;;;;;;;100.00;19.33;;;;;;;;;;6246478;28;20013;-76
2023/08/10 04:06:24;;;;;;;86.87;23.83;;;;;;;;;;6228633;28;20097;-79
2023/08/10 04:09:24;;;;;;;64.63;21.90;;;;;;;;;;6246434;28;20021;-78
2023/08/10 04:12:25;;;;;;;84.43;25.27;;;;;;;;;;6251136;28;20037;-79
2023/08/10 04:15:25;;;;;;;84.93;25.00;;;;;;;;;;6244595;28;20020;-78
2023/08/10 04:18:25;;;;;;;79.07;20.70;;;;;;;;;;6245866;28;20017;-78
2023/08/10 04:21:25;;;;;;;86.53;24.57;;;;;;;;;;6245178;28;20022;-78
2023/08/10 04:24:25;;;;;;;55.77;19.50;;;;;;;;;;6245693;28;20025;-77
2023/08/10 04:27:26;;;;;;;63.07;18.83;;;;;;;;;;6244714;28;20816;-78
2023/08/10 04:30:29;;;;;;;102.87;22.73;;;;;;;;;;6245142;28;20022;-78
2023/08/10 04:33:31;;;;;;;71.05;23.73;;;;;;;;;;6244345;28;20014;-78
2023/08/10 04:36:33;;;;;;;85.63;23.65;;;;;;;;;;6245598;28;20031;-78
2023/08/10 04:39:33;;;;;;;80.82;24.33;;;;;;;;;;6244664;28;20066;-78
2023/08/10 04:42:35;;;;;;;76.50;22.97;;;;;;;;;;6244631;28;20025;-78
2023/08/10 04:45:35;;;;;;;84.90;23.15;;;;;;;;;;6235535;28;20472;-78
2023/08/10 04:48:35;;;;;;;49.67;23.90;;;;;;;;;;6242246;28;20118;-77
2023/08/10 04:51:36;;;;;;;61.97;25.80;;;;;;;;;;6244432;28;20032;-77
2023/08/10 04:54:37;;;;;;;67.70;23.43;;;;;;;;;;6244209;28;20045;-77
2023/08/10 04:57:38;;;;;;;66.97;24.33;;;;;;;;;;6244111;28;20116;-77
2023/08/10 05:00:39;;;;;;;65.33;23.90;;;;;;;;;;6245048;28;20105;-78
2023/08/10 05:03:39;;;;;;;69.63;22.47;;;;;;;;;;6247495;28;20029;-78
2023/08/10 05:06:40;;;;;;;77.97;24.83;;;;;;;;;;6244385;28;20029;-78
2023/08/10 05:09:40;;;;;;;63.87;23.07;;;;;;;;;;6244011;28;20013;-78
2023/08/10 05:12:40;;;;;;;61.25;25.02;;;;;;;;;;6248642;28;20027;-78
2023/08/10 05:15:40;;;;;;;54.80;22.17;;;;;;;;;;6246404;28;20017;-78
2023/08/10 05:18:42;;;;;;;65.03;22.63;;;;;;;;;;6227322;28;20032;-79
2023/08/10 05:21:42;;;;;;;69.50;23.00;;;;;;;;;;6243348;28;20435;-78
2023/08/10 05:24:43;;;;;;;56.30;24.67;;;;;;;;;;6244155;28;20021;-79
2023/08/10 05:27:43;;;;;;;55.33;23.90;;;;;;;;;;6243287;28;20024;-78
2023/08/10 05:30:43;;;;;;;52.47;24.47;;;;;;;;;;6257442;28;20132;-79
2023/08/10 05:33:45;;;;;;;46.73;18.63;;;;;;;;;;6244767;28;20021;-79
2023/08/10 05:36:48;;;;;;;53.25;22.95;;;;;;;;;;6244209;28;20029;-79
2023/08/10 05:39:48;;;;;;;46.55;19.83;;;;;;;;;;6225575;28;20500;-78
2023/08/10 05:42:49;;;;;;;48.28;21.95;;;;;;;;;;6243740;28;20028;-78
2023/08/10 05:45:50;;;;;;;47.20;21.03;;;;;;;;;;6246630;28;20140;-79
2023/08/10 05:48:50;;;;;;;40.08;21.23;;;;;;;;;;6247717;28;20041;-79
2023/08/10 05:51:50;;;;;;;30.80;15.57;;;;;;;;;;6245006;28;20419;-79
2023/08/10 05:54:51;;;;;;;46.50;22.97;;;;;;;;;;6225710;28;20018;-78
2023/08/10 05:57:51;;;;;;;32.53;18.37;;;;;;;;;;6244956;28;20021;-79
2023/08/10 06:00:51;;;;;;;36.70;18.20;;;;;;;;;;6244888;28;20059;-79
2023/08/10 06:03:52;;;;;;;30.40;16.60;;;;;;;;;;6245933;28;20021;-79
2023/08/10 06:06:53;;;;;;;31.73;17.48;;;;;;;;;;6243442;28;20040;-79
2023/08/10 06:09:53;;;;;;;24.37;14.87;;;;;;;;;;6243224;28;20464;-79
2023/08/10 06:12:53;;;;;;;27.40;15.30;;;;;;;;;;6243160;28;20021;-79
2023/08/10 06:15:53;;;;;;;25.38;15.23;;;;;;;;;;6242535;28;20169;-78
2023/08/10 06:18:54;;;;;;;29.20;15.37;;;;;;;;;;6244119;28;20468;-79
2023/08/10 06:21:55;;;;;;;26.02;15.75;;;;;;;;;;6242548;28;20399;-79
2023/08/10 06:24:55;;;;;;;24.10;14.50;;;;;;;;;;6224838;28;20038;-78
2023/08/10 06:27:55;;;;;;;25.23;15.50;;;;;;;;;;6240780;28;20017;-78
2023/08/10 06:30:55;;;;;;;24.33;13.07;;;;;;;;;;6242205;28;20033;-79
2023/08/10 06:33:56;;;;;;;29.20;19.23;;;;;;;;;;6242495;28;20025;-79
2023/08/10 06:36:57;;;;;;;35.10;21.40;;;;;;;;;;6242480;28;20104;-79
2023/08/10 06:39:57;;;;;;;31.93;19.57;;;;;;;;;;6242235;28;20085;-79
2023/08/10 06:42:58;;;;;;;32.33;19.03;;;;;;;;;;6241722;28;20462;-79
2023/08/10 06:45:59;;;;;;;29.67;19.80;;;;;;;;;;6224007;28;20029;-79
2023/08/10 06:48:59;;;;;;;33.27;20.17;;;;;;;;;;6241887;28;20041;-80
2023/08/10 06:51:59;;;;;;;31.60;17.67;;;;;;;;;;6224243;28;20021;-79
2023/08/10 06:54:59;;;;;;;29.50;19.93;;;;;;;;;;6224630;28;20013;-79
2023/08/10 06:58:00;;;;;;;28.47;19.17;;;;;;;;;;6223654;28;20029;-79
2023/08/10 07:01:00;;;;;;;30.23;19.63;;;;;;;;;;6238572;28;20052;-79
2023/08/10 07:04:01;;;;;;;26.87;18.70;;;;;;;;;;6250714;28;20274;-79
2023/08/10 07:07:01;;;;;;;30.93;20.17;;;;;;;;;;6225185;28;20034;-79
2023/08/10 07:10:05;;;;;;;27.97;16.83;;;;;;;;;;6223801;28;20053;-79
2023/08/10 07:13:05;;;;;;;25.00;17.38;;;;;;;;;;6233794;28;20021;-79
2023/08/10 07:16:05;;;;;;;28.77;16.20;;;;;;;;;;6241184;28;20017;-78
2023/08/10 07:19:05;;;;;;;27.13;17.70;;;;;;;;;;6225285;28;20651;-78
2023/08/10 07:22:06;;;;;;;23.53;15.80;;;;;;;;;;6245957;28;20013;-79
2023/08/10 07:25:07;;;;;;;26.97;16.37;;;;;;;;;;6243018;28;20014;-79
2023/08/10 07:28:07;;;;;;;23.70;17.03;;;;;;;;;;6226194;28;20040;-78
2023/08/10 07:31:08;;;;;;;24.07;15.87;;;;;;;;;;6241197;28;20451;-78
2023/08/10 07:34:10;;;;;;;19.92;14.90;;;;;;;;;;6239005;28;20057;-78
2023/08/10 07:37:10;;;;;;;21.63;15.63;;;;;;;;;;6243444;28;20171;-78
2023/08/10 07:40:11;;;;;;;23.07;14.80;;;;;;;;;;6240524;28;20029;-78
2023/08/10 07:43:11;;;;;;;21.93;13.30;;;;;;;;;;6241467;28;20100;-78
2023/08/10 07:46:11;;;;;;;20.43;13.10;;;;;;;;;;6241621;28;20037;-77
2023/08/10 07:49:12;;;;;;;18.23;12.83;;;;;;;;;;6223900;28;20097;-77
2023/08/10 07:52:12;;;;;;;17.53;12.37;;;;;;;;;;6242500;28;20026;-77
2023/08/10 07:55:13;;;;;;;16.43;11.00;;;;;;;;;;6229365;28;20028;-77
2023/08/10 07:58:15;;;;;;;20.60;14.23;;;;;;;;;;6218315;28;20037;-77
2023/08/10 08:01:15;;;;;;;18.10;14.00;;;;;;;;;;6212457;28;20268;-77
2023/08/10 08:04:15;;;;;;;15.17;11.27;;;;;;;;;;6245418;28;20017;-77
2023/08/10 08:07:16;;;;;;;18.45;11.50;;;;;;;;;;6225921;28;20108;-77
2023/08/10 08:10:16;;;;;;;16.03;10.93;;;;;;;;;;6242128;28;20487;-76
2023/08/10 08:13:16;;;;;;;14.80;10.37;;;;;;;;;;6243888;28;20040;-77
2023/08/10 08:16:16;;;;;;;15.23;10.40;;;;;;;;;;6242882;28;20072;-77
2023/08/10 08:19:18;;;;;;;12.02;8.65;;;;;;;;;;6244199;28;20032;-76
2023/08/10 08:22:18;;;;;;;15.70;10.52;;;;;;;;;;6227532;28;20462;-77
2023/08/10 08:25:18;;;;;;;11.82;9.43;;;;;;;;;;6245132;28;20028;-77
2023/08/10 08:28:18;;;;;;;13.93;8.60;;;;;;;;;;6213053;28;20144;-77
2023/08/10 08:31:20;;;;;;;14.17;9.47;;;;;;;;;;6249509;28;20458;-77
2023/08/10 08:34:20;;;;;;;12.88;10.02;;;;;;;;;;6244545;28;20021;-77
2023/08/10 08:37:20;;;;;;;13.95;9.30;;;;;;;;;;6227594;28;20496;-77
2023/08/10 08:40:20;;;;;;;10.63;6.88;;;;;;;;;;6239562;28;20021;-77
2023/08/10 08:43:21;;;;;;;12.63;9.07;;;;;;;;;;6229825;28;20488;-77
2023/08/10 08:46:24;;;;;;;12.27;8.80;;;;;;;;;;6245174;28;20096;-77
2023/08/10 08:49:25;;;;;;;13.52;8.63;;;;;;;;;;6244409;28;20041;-77
2023/08/10 08:52:25;;;;;;;13.88;9.63;;;;;;;;;;6244135;28;20475;-78
2023/08/10 08:55:26;;;;;;;12.97;8.80;;;;;;;;;;6222085;28;20028;-78
2023/08/10 08:58:26;;;;;;;13.93;8.90;;;;;;;;;;6245845;28;20025;-76
2023/08/10 09:01:28;;;;;;;13.48;10.52;;;;;;;;;;6243003;28;20036;-76
2023/08/10 09:04:29;;;;;;;17.15;11.18;;;;;;;;;;6225497;28;20018;-75
2023/08/10 09:07:29;;;;;;;14.27;9.60;;;;;;;;;;6243935;28;20094;-75
2023/08/10 09:10:29;;;;;;;14.27;9.43;;;;;;;;;;6249862;28;20028;-75
2023/08/10 09:13:31;;;;;;;15.60;9.57;;;;;;;;;;6243625;28;20108;-75
2023/08/10 09:16:32;;;;;;;13.93;9.38;;;;;;;;;;6246032;28;20541;-75
2023/08/10 09:19:36;;;;;;;15.43;8.85;;;;;;;;;;6249485;28;20029;-75
2023/08/10 09:22:38;;;;;;;14.15;9.13;;;;;;;;;;6225580;28;20010;-75
2023/08/10 09:25:38;;;;;;;;;;;;;;;;;;6246220;28;20021;-75
2023/08/10 09:28:38;;;;;;;12.80;9.03;;;;;;;;;;6225555;28;20421;-75
2023/08/10 09:31:41;;;;;;;17.13;10.87;;;;;;;;;;6230157;28;20108;-75
2023/08/10 09:34:43;;;;;;;12.75;6.88;;;;;;;;;;6243381;28;20299;-75
2023/08/10 09:37:44;;;;;;;9.38;5.55;;;;;;;;;;6225459;28;20389;-75
2023/08/10 09:40:44;;;;;;;9.57;4.82;;;;;;;;;;6242227;28;20028;-75
2023/08/10 09:43:44;;;;;;;4.35;3.35;;;;;;;;;;6224011;28;20025;-74
2023/08/10 09:46:44;;;;;;;5.43;3.23;;;;;;;;;;6242907;28;20072;-75
2023/08/10 09:49:54;;;;;;;8.80;3.30;;;;;;;;;;6243653;28;20108;-75
2023/08/10 09:52:54;;;;;;;6.88;2.65;;;;;;;;;;6241350;28;20022;-74
2023/08/10 09:55:55;;;;;;;3.00;2.13;;;;;;;;;;6242614;28;20013;-74
2023/08/10 09:58:57;;;;;;;7.15;3.50;;;;;;;;;;6242879;28;20049;-75
2023/08/10 10:01:58;;;;;;;5.53;3.75;;;;;;;;;;6243810;28;20365;-75
2023/08/10 10:04:58;;;;;;;6.68;3.75;;;;;;;;;;6242659;28;20025;-75
2023/08/10 10:07:59;;;;;;;10.43;4.80;;;;;;;;;;6242501;28;20037;-74
2023/08/10 10:11:02;;;;;;;12.30;5.60;;;;;;;;;;6225524;28;20116;-74
2023/08/10 10:14:03;;;;;;;7.25;3.90;;;;;;;;;;6241661;28;20017;-74
2023/08/10 10:17:05;;;;;;;11.23;4.50;;;;;;;;;;6243062;28;20357;-75
2023/08/10 10:20:11;;;;;;;9.65;4.53;;;;;;;;;;6243621;28;20025;-75
2023/08/10 10:23:15;;;;;;;13.50;7.43;;;;;;;;;;6241099;28;20090;-75
2023/08/10 10:26:19;;;;;;;13.02;7.45;;;;;;;;;;6231730;28;20569;-74
2023/08/10 10:29:19;;;;;;;6.70;4.70;;;;;;;;;;6242239;28;20132;-75
2023/08/10 10:32:20;;;;;;;5.82;3.30;;;;;;;;;;6240773;28;20087;-75
2023/08/10 10:35:25;;;;;;;7.70;4.20;;;;;;;;;;6240864;28;20026;-74
2023/08/10 10:38:25;;;;;;;7.65;3.45;;;;;;;;;;6241907;28;20025;-74
2023/08/10 10:41:30;;;;;;;7.13;4.17;;;;;;;;;;6241082;28;20017;-74
2023/08/10 10:44:51;;;;;;;6.30;3.25;;;;;;;;;;6241390;28;20025;-74
2023/08/10 10:47:51;;;;;;;6.70;4.18;;;;;;;;;;6241258;28;20056;-74
2023/08/10 10:50:52;;;;;;;6.83;3.83;;;;;;;;;;6249053;28;20038;-73
2023/08/10 10:53:59;;;;;;;6.13;3.55;;;;;;;;;;6242164;28;20095;-74
2023/08/10 10:57:00;;;;;;;7.03;3.85;;;;;;;;;;6244978;28;20025;-74
2023/08/10 11:00:00;;;;;;;8.00;4.43;;;;;;;;;;6241792;28;20018;-73
2023/08/10 11:03:02;;;;;;;4.17;3.03;;;;;;;;;;6244885;28;20467;-74
2023/08/10 11:06:03;;;;;;;8.07;4.25;;;;;;;;;;6242131;28;20017;-74
2023/08/10 11:09:06;;;;;;;6.50;3.45;;;;;;;;;;6223480;28;20029;-74
2023/08/10 11:12:07;;;;;;;5.05;3.15;;;;;;;;;;6245553;28;20013;-74
2023/08/10 11:15:09;;;;;;;4.13;2.33;;;;;;;;;;6222435;28;20787;-74
2023/08/10 11:18:11;;;;;;;8.35;3.25;;;;;;;;;;6221445;28;20049;-74
2023/08/10 11:21:12;;;;;;;4.80;3.20;;;;;;;;;;6220663;28;20030;-74
2023/08/10 11:24:12;;;;;;;4.78;3.20;;;;;;;;;;6224867;28;20033;-74
2023/08/10 11:27:13;;;;;;;3.90;2.87;;;;;;;;;;6245941;28;20126;-74
2023/08/10 11:30:23;;;;;;;4.75;2.58;;;;;;;;;;6251388;28;20025;-74
2023/08/10 11:33:23;;;;;;;7.10;2.63;;;;;;;;;;6245898;28;20491;-74
2023/08/10 11:36:23;;;;;;;5.07;2.60;;;;;;;;;;6227960;28;20040;-74
2023/08/10 11:39:24;;;;;;;6.27;3.43;;;;;;;;;;6245538;28;20027;-74
2023/08/10 11:42:24;;;;;;;6.05;3.08;;;;;;;;;;6228252;28;20100;-74
2023/08/10 11:45:25;;;;;;;6.60;2.57;;;;;;;;;;6228085;28;20117;-74
2023/08/10 11:48:26;;;;;;;10.20;4.40;;;;;;;;;;6224678;28;20050;-74
2023/08/10 11:51:33;;;;;;;9.95;3.78;;;;;;;;;;6222383;28;20022;-73
2023/08/10 11:54:37;;;;;;;9.77;5.35;;;;;;;;;;6221203;28;20057;-74
2023/08/10 11:57:42;;;;;;;11.63;5.03;;;;;;;;;;6229941;28;20576;-74
2023/08/10 12:01:03;;;;;;;9.63;4.40;;;;;;;;;;6231617;28;20099;-74
2023/08/10 12:04:10;;;;;;;7.88;3.45;;;;;;;;;;6221060;28;20029;-74
2023/08/10 12:07:11;;;;;;;9.13;4.85;;;;;;;;;;6215842;28;20108;-74
2023/08/10 12:10:12;;;;;;;6.57;3.53;;;;;;;;;;6218378;28;20041;-74
2023/08/10 12:13:24;;;;;;;6.40;3.63;;;;;;;;;;6227526;28;20030;-74
2023/08/10 12:16:25;;;;;;;7.13;3.75;;;;;;;;;;6217897;28;20105;-74
2023/08/10 12:19:25;;;;;;;9.43;4.68;;;;;;;;;;6218888;28;20061;-74
2023/08/10 12:22:25;;;;;;;10.67;4.93;;;;;;;;;;6223165;28;20495;-74
2023/08/10 12:25:26;;;;;;;10.27;4.88;;;;;;;;;;6228979;28;20022;-74
2023/08/10 12:28:26;;;;;;;10.25;4.18;;;;;;;;;;6230736;28;20348;-74
2023/08/10 12:31:26;;;;;;;7.73;3.33;;;;;;;;;;6216712;28;20018;-74
2023/08/10 12:34:26;;;;;;;9.27;3.50;;;;;;;;;;6229729;28;20415;-75
2023/08/10 12:37:29;;;;;;;7.33;3.80;;;;;;;;;;6226029;28;20393;-75
2023/08/10 12:40:29;;;;;;;9.85;3.95;;;;;;;;;;6240254;28;20482;-74
2023/08/10 12:43:30;;;;;;;9.80;4.25;;;;;;;;;;6231780;28;20049;-74
2023/08/10 12:46:30;;;;;;;6.60;3.53;;;;;;;;;;6226651;28;20034;-75
2023/08/10 12:49:31;;;;;;;6.95;3.53;;;;;;;;;;6224214;28;20052;-75
2023/08/10 12:52:31;;;;;;;10.87;3.87;;;;;;;;;;6218773;28;20301;-74
2023/08/10 12:55:32;;;;;;;8.13;4.03;;;;;;;;;;6227862;28;20022;-74
2023/08/10 12:58:32;;;;;;;7.25;4.03;;;;;;;;;;6226187;28;20029;-74
2023/08/10 13:01:32;;;;;;;8.80;3.85;;;;;;;;;;6223099;28;20006;-74
2023/08/10 13:04:33;;;;;;;7.75;3.50;;;;;;;;;;6222226;28;20523;-74
2023/08/10 13:07:34;;;;;;;7.50;3.58;;;;;;;;;;6220043;28;20475;-75
2023/08/10 13:10:34;;;;;;;3.40;2.65;;;;;;;;;;6215186;28;20018;-75
2023/08/10 13:13:34;;;;;;;6.90;3.60;;;;;;;;;;6218036;28;20018;-75
2023/08/10 13:16:34;;;;;;;4.77;3.23;;;;;;;;;;6215578;28;20479;-75
2023/08/10 13:19:35;;;;;;;5.13;3.00;;;;;;;;;;6216660;28;20053;-75
2023/08/10 13:22:35;;;;;;;;;;;;;;;;;;6214357;28;20092;-73
2023/08/10 13:25:35;;;;;;;7.75;3.10;;;;;;;;;;6217158;28;20348;-74
2023/08/10 13:28:35;;;;;;;4.67;2.90;;;;;;;;;;6222000;28;20514;-74
2023/08/10 13:31:37;;;;;;;;;;;;;;;;;;6238776;28;20499;-74
2023/08/10 13:34:38;;;;;;;3.53;2.03;;;;;;;;;;6243957;28;20266;-74
2023/08/10 13:37:38;;;;;;;6.10;3.05;;;;;;;;;;6245747;28;20025;-74
2023/08/10 13:40:39;;;;;;;;;;;;;;;;;;6234516;28;20464;-74
2023/08/10 13:43:39;;;;;;;3.28;2.55;;;;;;;;;;6233116;28;19916;-74
2023/08/10 13:46:39;;;;;;;;;;;;;;;;;;6239748;28;20075;-74
2023/08/10 13:49:39;;;;;;;6.72;2.40;;;;;;;;;;6242917;28;19967;-74
2023/08/10 13:52:40;;;;;;;7.13;2.37;;;;;;;;;;6226834;28;20025;-74
2023/08/10 13:55:40;;;;;;;3.77;2.23;;;;;;;;;;6243419;28;20022;-74
2023/08/10 13:58:41;;;;;;;3.10;1.87;;;;;;;;;;6244052;28;20017;-74
2023/08/10 14:01:41;;;;;;;5.35;2.10;;;;;;;;;;6235306;28;20018;-74
2023/08/10 14:04:42;;;;;;;7.63;2.88;;;;;;;;;;6247040;28;20028;-74
2023/08/10 14:07:42;;;;;;;3.78;2.13;;;;;;;;;;6237067;28;20066;-74
2023/08/10 14:10:42;;;;;;;5.83;2.77;;;;;;;;;;6243644;28;20021;-74
2023/08/10 14:13:42;;;;;;;4.73;2.10;;;;;;;;;;6224802;28;20034;-74
2023/08/10 14:16:43;;;;;;;4.50;2.10;;;;;;;;;;6243055;28;20033;-74
2023/08/10 14:19:43;;;;;;;7.03;2.20;;;;;;;;;;6244759;28;20104;-75
2023/08/10 14:22:44;;;;;;;7.47;1.90;;;;;;;;;;6242330;28;20013;-75
2023/08/10 14:25:44;;;;;;;2.93;1.97;;;;;;;;;;6241932;28;20396;-75
2023/08/10 14:28:45;;;;;;;5.18;2.20;;;;;;;;;;6242373;28;20033;-74
2023/08/10 14:31:45;;;;;;;2.42;1.80;;;;;;;;;;6242754;28;20086;-74
2023/08/10 14:34:45;;;;;;;3.27;2.07;;;;;;;;;;6241961;28;20100;-75
2023/08/10 14:37:45;;;;;;;5.60;2.15;;;;;;;;;;6242386;28;20020;-75
2023/08/10 14:40:45;;;;;;;;;;;;;;;;;;6235978;28;20082;-74
2023/08/10 14:43:46;;;;;;;6.05;1.90;;;;;;;;;;6242245;28;19936;-75
2023/08/10 14:46:46;;;;;;;4.43;2.63;;;;;;;;;;6226861;28;20056;-75
2023/08/10 14:49:46;;;;;;;4.37;2.13;;;;;;;;;;6241756;28;20049;-74
2023/08/10 14:52:47;;;;;;;4.20;1.77;;;;;;;;;;6223984;28;20048;-74
2023/08/10 14:55:47;;;;;;;;;;;;;;;;;;6242623;28;20475;-74
2023/08/10 14:58:47;;;;;;;9.43;3.63;;;;;;;;;;6247794;28;19919;-74
2023/08/10 15:01:47;;;;;;;;;;;;;;;;;;6235330;28;20060;-74
2023/08/10 15:04:47;;;;;;;6.65;3.85;;;;;;;;;;6249802;28;19909;-74
2023/08/10 15:07:48;;;;;;;9.00;3.30;;;;;;;;;;6247938;28;20106;-74
2023/08/10 15:10:48;;;;;;;;;;;;;;;;;;6248953;28;20264;-74
2023/08/10 15:13:49;;;;;;;5.40;2.50;;;;;;;;;;6247484;28;20295;-74
2023/08/10 15:16:49;;;;;;;;;;;;;;;;;;6248531;28;20056;-74
2023/08/10 15:19:49;;;;;;;5.90;2.65;;;;;;;;;;6254158;28;19967;-75
2023/08/10 15:22:49;;;;;;;5.40;2.83;;;;;;;;;;6247469;28;20601;-75
2023/08/10 15:25:50;;;;;;;8.60;3.87;;;;;;;;;;6250439;28;20013;-75
2023/08/10 15:28:51;;;;;;;8.55;2.83;;;;;;;;;;6226676;28;20514;-75
2023/08/10 15:31:52;;;;;;;6.35;3.00;;;;;;;;;;6242080;28;20017;-75
2023/08/10 15:34:52;;;;;;;7.10;3.43;;;;;;;;;;6249294;28;20553;-75
2023/08/10 15:37:54;;;;;;;4.78;2.70;;;;;;;;;;6251996;28;20018;-75
2023/08/10 15:40:55;;;;;;;6.57;3.10;;;;;;;;;;6249746;28;20006;-75
2023/08/10 15:43:55;;;;;;;5.82;2.90;;;;;;;;;;6250256;28;20136;-75
2023/08/10 15:46:55;;;;;;;7.53;3.13;;;;;;;;;;6252636;28;20480;-75
2023/08/10 15:49:55;;;;;;;7.47;4.20;;;;;;;;;;6250915;28;20048;-75
2023/08/10 15:52:55;;;;;;;5.47;3.40;;;;;;;;;;6226643;28;20023;-75
2023/08/10 15:55:56;;;;;;;6.35;3.45;;;;;;;;;;6249301;28;20024;-74
2023/08/10 15:58:56;;;;;;;11.40;3.53;;;;;;;;;;6252161;28;20395;-78
2023/08/10 16:01:58;;;;;;;7.97;3.77;;;;;;;;;;6236629;28;20017;-78
2023/08/10 16:04:58;;;;;;;9.75;4.22;;;;;;;;;;6251850;28;20018;-78
2023/08/10 16:07:59;;;;;;;8.37;4.07;;;;;;;;;;6248875;28;20018;-75
2023/08/10 16:10:59;;;;;;;9.47;5.27;;;;;;;;;;6250588;28;20020;-75
2023/08/10 16:14:00;;;;;;;9.57;4.85;;;;;;;;;;6245775;28;20025;-75
2023/08/10 16:17:01;;;;;;;9.35;5.28;;;;;;;;;;6227491;28;20168;-75
2023/08/10 16:20:03;;;;;;;8.53;4.87;;;;;;;;;;6245553;28;20064;-75
2023/08/10 16:23:05;;;;;;;9.65;4.65;;;;;;;;;;6226747;28;20022;-75
2023/08/10 16:26:05;;;;;;;9.68;4.13;;;;;;;;;;6227314;28;20013;-75
2023/08/10 16:29:05;;;;;;;10.10;5.77;;;;;;;;;;6237995;28;20399;-75
2023/08/10 16:32:06;;;;;;;10.13;4.83;;;;;;;;;;6245201;28;20751;-75
2023/08/10 16:35:07;;;;;;;10.32;5.85;;;;;;;;;;6245131;28;20055;-75
2023/08/10 16:38:07;;;;;;;12.43;4.77;;;;;;;;;;6241918;28;20100;-75
2023/08/10 16:41:07;;;;;;;10.40;4.55;;;;;;;;;;6241692;28;20929;-75
2023/08/10 16:44:08;;;;;;;9.02;4.00;;;;;;;;;;6243155;28;20010;-76
2023/08/10 16:47:08;;;;;;;8.60;4.28;;;;;;;;;;6226772;28;20053;-76
2023/08/10 16:50:09;;;;;;;7.93;4.27;;;;;;;;;;6209133;28;20086;-76
2023/08/10 16:53:09;;;;;;;;;;;;;;;;;;6242388;28;20523;-75
2023/08/10 16:56:09;;;;;;;11.05;4.45;;;;;;;;;;6241312;28;20003;-75
2023/08/10 16:59:09;;;;;;;;;;;;;;;;;;6245178;28;20017;-75
2023/08/10 17:02:09;;;;;;;8.40;3.88;;;;;;;;;;6247175;28;19909;-76
2023/08/10 17:05:09;;;;;;;;;;;;;;;;;;6242375;28;20029;-76
2023/08/10 17:08:10;;;;;;;7.13;3.78;;;;;;;;;;6239519;28;19940;-74
2023/08/10 17:11:11;;;;;;;;;;;;;;;;;;6246993;28;20068;-74
2023/08/10 17:14:12;;;;;;;8.68;3.45;;;;;;;;;;6241233;28;19991;-74
2023/08/10 17:17:12;;;;;;;6.43;3.00;;;;;;;;;;6247685;28;20091;-75
2023/08/10 17:20:12;;;;;;;;;;;;;;;;;;6229535;28;20033;-75
2023/08/10 17:23:14;;;;;;;10.57;5.30;;;;;;;;;;6222826;28;19917;-75
2023/08/10 17:26:15;;;;;;;9.18;4.57;;;;;;;;;;6249321;28;20100;-75
2023/08/10 17:29:15;;;;;;;;;;;;;;;;;;6240271;28;20063;-75
2023/08/10 17:32:15;;;;;;;6.95;3.97;;;;;;;;;;6246726;28;20003;-75
2023/08/10 17:35:15;;;;;;;;;;;;;;;;;;6244053;28;20043;-75
2023/08/10 17:38:15;;;;;;;12.10;4.17;;;;;;;;;;6242906;28;19955;-79
2023/08/10 17:41:15;;;;;;;8.45;3.83;;;;;;;;;;6241611;28;20024;-78
2023/08/10 17:44:16;;;;;;;9.07;3.80;;;;;;;;;;6224040;28;20452;-78
2023/08/10 17:47:16;;;;;;;9.40;4.07;;;;;;;;;;6238974;28;20121;-78
2023/08/10 17:50:16;;;;;;;7.27;3.53;;;;;;;;;;6240768;28;20029;-78
2023/08/10 17:53:17;;;;;;;8.10;4.10;;;;;;;;;;6225149;28;20609;-78